< < Back
Terminal Aerodrome Forecast


Current Version              Previous Versions:   1  2  3  4  5  6  7  8  9  

Terminal Aerodrome Forecast

054
FTUS42 KCAE 281400 AAA
TAFCAE
TAF AMD
KCAE 281456Z 2815/2912 01008KT P6SM SKC
     FM281700 VRB04KT P6SM SKC=

Latest METAR

624
SAUS80 KWBC 282100 RRE
MTRCAE
METAR KCAE 282056Z VRB03KT 10SM CLR 09/M07 A3031 RMK AO2 SLP265
T00891067 55011


USA.gov is the U.S. government's official web portal to all federal, state and local government web resources and services.